sensor_id;sensor_type;location;lat;lon;timestamp;pressure;altitude;pressure_sealevel;temperature;humidity
70015;BME280;57358;51.094;6.760;2023-04-30T00:00:33;101723.16;;;7.61;100.00
70015;BME280;57358;51.094;6.760;2023-04-30T00:03:01;101661.44;;;7.17;100.00
70015;BME280;57358;51.094;6.760;2023-04-30T00:05:27;101725.13;;;7.49;100.00
70015;BME280;57358;51.094;6.760;2023-04-30T00:07:54;101555.31;;;6.40;100.00
70015;BME280;57358;51.094;6.760;2023-04-30T00:10:20;101721.94;;;7.38;100.00
70015;BME280;57358;51.094;6.760;2023-04-30T00:12:47;101707.56;;;7.18;100.00
70015;BME280;57358;51.094;6.760;2023-04-30T00:15:13;101632.97;;;6.68;100.00
70015;BME280;57358;51.094;6.760;2023-04-30T00:17:39;101739.31;;;7.39;100.00
70015;BME280;57358;51.094;6.760;2023-04-30T00:20:06;101741.84;;;7.42;100.00
70015;BME280;57358;51.094;6.760;2023-04-30T00:22:33;101741.78;;;7.45;100.00
70015;BME280;57358;51.094;6.760;2023-04-30T00:25:00;101723.88;;;7.28;100.00
70015;BME280;57358;51.094;6.760;2023-04-30T00:27:26;101745.34;;;7.41;100.00
70015;BME280;57358;51.094;6.760;2023-04-30T00:29:53;101743.66;;;7.40;100.00
70015;BME280;57358;51.094;6.760;2023-04-30T00:32:20;101701.66;;;7.10;100.00
70015;BME280;57358;51.094;6.760;2023-04-30T00:34:47;101742.97;;;7.30;100.00
70015;BME280;57358;51.094;6.760;2023-04-30T00:37:14;101731.84;;;7.22;100.00
70015;BME280;57358;51.094;6.760;2023-04-30T00:39:40;101718.16;;;7.11;100.00
70015;BME280;57358;51.094;6.760;2023-04-30T00:42:07;101731.06;;;7.18;100.00
70015;BME280;57358;51.094;6.760;2023-04-30T00:44:33;101747.53;;;7.21;100.00
70015;BME280;57358;51.094;6.760;2023-04-30T00:46:59;101743.28;;;7.16;100.00
70015;BME280;57358;51.094;6.760;2023-04-30T00:49:26;101748.63;;;7.10;100.00
70015;BME280;57358;51.094;6.760;2023-04-30T00:51:53;101746.94;;;7.08;100.00
70015;BME280;57358;51.094;6.760;2023-04-30T00:54:19;101753.03;;;7.07;100.00
70015;BME280;57358;51.094;6.760;2023-04-30T00:56:46;101634.53;;;6.33;100.00
70015;BME280;57358;51.094;6.760;2023-04-30T00:59:13;101712.69;;;6.81;100.00
70015;BME280;57358;51.094;6.760;2023-04-30T01:01:39;101753.19;;;6.99;100.00
70015;BME280;57358;51.094;6.760;2023-04-30T01:04:06;101747.97;;;6.99;100.00
70015;BME280;57358;51.094;6.760;2023-04-30T01:06:32;101743.78;;;6.92;100.00
70015;BME280;57358;51.094;6.760;2023-04-30T01:08:59;101752.38;;;6.97;100.00
70015;BME280;57358;51.094;6.760;2023-04-30T01:11:47;101720.59;;;6.78;100.00
70015;BME280;57358;51.094;6.760;2023-04-30T01:16:56;101736.28;;;6.75;100.00
70015;BME280;57358;51.094;6.760;2023-04-30T01:19:35;101755.41;;;6.75;100.00
70015;BME280;57358;51.094;6.760;2023-04-30T01:22:04;101750.28;;;6.69;100.00
70015;BME280;57358;51.094;6.760;2023-04-30T01:28:04;101735.03;;;6.49;100.00
70015;BME280;57358;51.094;6.760;2023-04-30T01:30:31;101732.66;;;6.37;100.00
70015;BME280;57358;51.094;6.760;2023-04-30T01:32:58;101642.44;;;5.77;100.00
70015;BME280;57358;51.094;6.760;2023-04-30T01:40:52;101745.06;;;6.23;100.00
70015;BME280;57358;51.094;6.760;2023-04-30T01:43:39;101739.88;;;6.21;100.00
70015;BME280;57358;51.094;6.760;2023-04-30T01:46:22;101744.19;;;6.24;100.00
70015;BME280;57358;51.094;6.760;2023-04-30T01:51:42;101598.81;;;5.38;100.00
70015;BME280;57358;51.094;6.760;2023-04-30T01:54:22;101700.47;;;5.87;100.00
70015;BME280;57358;51.094;6.760;2023-04-30T01:57:05;101674.72;;;5.70;100.00
70015;BME280;57358;51.094;6.760;2023-04-30T01:59:34;101752.19;;;6.13;100.00
70015;BME280;57358;51.094;6.760;2023-04-30T02:02:01;101753.13;;;6.07;100.00
70015;BME280;57358;51.094;6.760;2023-04-30T02:04:27;101696.41;;;5.69;100.00
70015;BME280;57358;51.094;6.760;2023-04-30T02:06:54;101752.41;;;5.99;100.00
70015;BME280;57358;51.094;6.760;2023-04-30T02:09:20;101755.06;;;5.94;100.00
70015;BME280;57358;51.094;6.760;2023-04-30T02:11:49;101660.47;;;5.35;100.00
70015;BME280;57358;51.094;6.760;2023-04-30T02:14:16;101712.19;;;5.59;100.00
70015;BME280;57358;51.094;6.760;2023-04-30T02:16:42;101755.25;;;5.84;100.00
70015;BME280;57358;51.094;6.760;2023-04-30T02:19:09;101733.63;;;5.77;100.00
70015;BME280;57358;51.094;6.760;2023-04-30T02:21:36;101756.00;;;5.89;100.00
70015;BME280;57358;51.094;6.760;2023-04-30T02:24:02;101741.41;;;5.80;100.00
70015;BME280;57358;51.094;6.760;2023-04-30T02:26:29;101654.63;;;5.20;100.00
70015;BME280;57358;51.094;6.760;2023-04-30T02:28:55;101746.69;;;5.75;100.00
70015;BME280;57358;51.094;6.760;2023-04-30T02:31:22;101744.13;;;5.71;100.00
70015;BME280;57358;51.094;6.760;2023-04-30T02:33:48;101742.47;;;5.67;100.00
70015;BME280;57358;51.094;6.760;2023-04-30T02:36:14;101738.28;;;5.56;100.00
70015;BME280;57358;51.094;6.760;2023-04-30T02:38:41;101744.31;;;5.60;100.00
70015;BME280;57358;51.094;6.760;2023-04-30T02:41:08;101609.34;;;4.72;100.00
70015;BME280;57358;51.094;6.760;2023-04-30T02:43:34;101748.78;;;5.49;100.00
70015;BME280;57358;51.094;6.760;2023-04-30T02:46:00;101733.34;;;5.35;100.00
70015;BME280;57358;51.094;6.760;2023-04-30T02:48:27;101754.09;;;5.41;100.00
70015;BME280;57358;51.094;6.760;2023-04-30T02:50:56;101752.41;;;5.37;100.00
70015;BME280;57358;51.094;6.760;2023-04-30T02:53:22;101749.88;;;5.34;100.00
70015;BME280;57358;51.094;6.760;2023-04-30T02:55:48;101758.53;;;5.34;100.00
70015;BME280;57358;51.094;6.760;2023-04-30T02:58:15;101762.88;;;5.34;100.00
70015;BME280;57358;51.094;6.760;2023-04-30T03:00:41;101705.31;;;4.93;100.00
70015;BME280;57358;51.094;6.760;2023-04-30T03:03:07;101765.56;;;5.28;100.00
70015;BME280;57358;51.094;6.760;2023-04-30T03:05:34;101763.94;;;5.19;100.00
70015;BME280;57358;51.094;6.760;2023-04-30T03:08:01;101766.56;;;5.17;100.00
70015;BME280;57358;51.094;6.760;2023-04-30T03:10:27;101721.84;;;4.88;100.00
70015;BME280;57358;51.094;6.760;2023-04-30T03:12:53;101765.78;;;5.11;100.00
70015;BME280;57358;51.094;6.760;2023-04-30T03:15:22;101768.44;;;5.06;100.00
70015;BME280;57358;51.094;6.760;2023-04-30T03:17:48;101765.91;;;5.02;100.00
70015;BME280;57358;51.094;6.760;2023-04-30T03:20:15;101763.31;;;4.98;100.00
70015;BME280;57358;51.094;6.760;2023-04-30T03:22:41;101698.75;;;4.60;100.00
70015;BME280;57358;51.094;6.760;2023-04-30T03:25:08;101764.22;;;4.96;100.00
70015;BME280;57358;51.094;6.760;2023-04-30T03:27:35;101705.72;;;4.58;100.00
70015;BME280;57358;51.094;6.760;2023-04-30T03:30:02;101751.31;;;4.87;100.00
70015;BME280;57358;51.094;6.760;2023-04-30T03:32:28;101692.00;;;4.45;100.00
70015;BME280;57358;51.094;6.760;2023-04-30T03:34:54;101725.56;;;4.65;100.00
70015;BME280;57358;51.094;6.760;2023-04-30T03:37:21;101764.41;;;4.79;100.00
70015;BME280;57358;51.094;6.760;2023-04-30T03:39:47;101761.00;;;4.75;100.00
70015;BME280;57358;51.094;6.760;2023-04-30T03:42:14;101753.25;;;4.69;100.00
70015;BME280;57358;51.094;6.760;2023-04-30T03:44:41;101759.31;;;4.68;100.00
70015;BME280;57358;51.094;6.760;2023-04-30T03:47:07;101753.28;;;4.66;100.00
70015;BME280;57358;51.094;6.760;2023-04-30T03:49:34;101754.19;;;4.62;100.00
70015;BME280;57358;51.094;6.760;2023-04-30T03:52:00;101755.94;;;4.62;100.00
70015;BME280;57358;51.094;6.760;2023-04-30T03:54:26;101757.72;;;4.58;100.00
70015;BME280;57358;51.094;6.760;2023-04-30T03:56:53;101758.63;;;4.54;100.00
70015;BME280;57358;51.094;6.760;2023-04-30T03:59:21;101756.09;;;4.46;100.00
70015;BME280;57358;51.094;6.760;2023-04-30T04:01:47;101756.97;;;4.45;100.00
70015;BME280;57358;51.094;6.760;2023-04-30T04:04:14;101767.38;;;4.44;100.00
70015;BME280;57358;51.094;6.760;2023-04-30T04:06:41;101704.56;;;3.98;100.00
70015;BME280;57358;51.094;6.760;2023-04-30T04:09:08;101764.84;;;4.36;100.00
70015;BME280;57358;51.094;6.760;2023-04-30T04:11:34;101733.78;;;4.20;100.00
70015;BME280;57358;51.094;6.760;2023-04-30T04:14:01;101770.09;;;4.31;100.00
70015;BME280;57358;51.094;6.760;2023-04-30T04:16:27;101766.59;;;4.32;100.00
70015;BME280;57358;51.094;6.760;2023-04-30T04:18:54;101764.81;;;4.40;100.00
70015;BME280;57358;51.094;6.760;2023-04-30T04:21:20;101775.00;;;4.62;100.00
70015;BME280;57358;51.094;6.760;2023-04-30T04:23:47;101773.72;;;4.98;100.00
70015;BME280;57358;51.094;6.760;2023-04-30T04:26:13;101779.34;;;5.36;100.00
70015;BME280;57358;51.094;6.760;2023-04-30T04:28:40;101778.78;;;5.76;100.00
70015;BME280;57358;51.094;6.760;2023-04-30T04:31:07;101784.41;;;6.07;100.00
70015;BME280;57358;51.094;6.760;2023-04-30T04:33:33;101703.88;;;5.90;100.00
70015;BME280;57358;51.094;6.760;2023-04-30T04:36:00;101764.72;;;6.42;100.00
70015;BME280;57358;51.094;6.760;2023-04-30T04:38:26;101697.66;;;6.02;100.00
70015;BME280;57358;51.094;6.760;2023-04-30T04:40:52;101771.03;;;6.27;100.00
70015;BME280;57358;51.094;6.760;2023-04-30T04:43:19;101772.38;;;6.02;100.00
70015;BME280;57358;51.094;6.760;2023-04-30T04:45:48;101764.66;;;5.92;100.00
70015;BME280;57358;51.094;6.760;2023-04-30T04:48:15;101702.56;;;5.65;100.00
70015;BME280;57358;51.094;6.760;2023-04-30T04:50:41;101767.09;;;6.56;100.00
70015;BME280;57358;51.094;6.760;2023-04-30T04:53:08;101741.59;;;7.14;100.00
70015;BME280;57358;51.094;6.760;2023-04-30T04:55:34;101781.31;;;8.06;100.00
70015;BME280;57358;51.094;6.760;2023-04-30T04:58:03;101783.31;;;8.65;100.00
70015;BME280;57358;51.094;6.760;2023-04-30T05:00:32;101773.78;;;9.25;100.00
70015;BME280;57358;51.094;6.760;2023-04-30T05:02:59;101775.47;;;9.84;100.00
70015;BME280;57358;51.094;6.760;2023-04-30T05:05:25;101761.19;;;10.21;100.00
70015;BME280;57358;51.094;6.760;2023-04-30T05:07:51;101747.28;;;10.69;100.00
70015;BME280;57358;51.094;6.760;2023-04-30T05:10:20;101687.03;;;10.90;93.80
70015;BME280;57358;51.094;6.760;2023-04-30T05:12:47;101688.16;;;11.28;89.00
70015;BME280;57358;51.094;6.760;2023-04-30T05:15:13;101606.91;;;11.02;83.74
70015;BME280;57358;51.094;6.760;2023-04-30T05:17:39;101582.34;;;10.81;79.47
70015;BME280;57358;51.094;6.760;2023-04-30T05:20:07;101541.31;;;10.32;78.52
70015;BME280;57358;51.094;6.760;2023-04-30T05:22:34;101630.59;;;11.00;80.08
70015;BME280;57358;51.094;6.760;2023-04-30T05:25:00;101581.81;;;10.94;80.39
70015;BME280;57358;51.094;6.760;2023-04-30T05:27:27;101633.53;;;11.36;78.55
70015;BME280;57358;51.094;6.760;2023-04-30T05:29:54;101555.88;;;10.63;76.57
70015;BME280;57358;51.094;6.760;2023-04-30T05:32:23;101475.31;;;8.69;79.77
70015;BME280;57358;51.094;6.760;2023-04-30T05:34:52;101594.72;;;8.42;85.45
70015;BME280;57358;51.094;6.760;2023-04-30T05:37:19;101690.63;;;9.04;89.50
70015;BME280;57358;51.094;6.760;2023-04-30T05:39:47;101655.09;;;9.51;89.21
70015;BME280;57358;51.094;6.760;2023-04-30T05:42:14;101663.84;;;10.54;87.83
70015;BME280;57358;51.094;6.760;2023-04-30T05:44:40;101703.69;;;11.56;84.62
70015;BME280;57358;51.094;6.760;2023-04-30T05:47:07;101693.16;;;12.01;81.15
70015;BME280;57358;51.094;6.760;2023-04-30T05:49:33;101677.47;;;12.59;78.43
70015;BME280;57358;51.094;6.760;2023-04-30T05:52:01;101660.69;;;13.00;77.18
70015;BME280;57358;51.094;6.760;2023-04-30T05:54:29;101576.38;;;12.81;75.27
70015;BME280;57358;51.094;6.760;2023-04-30T05:56:56;101559.75;;;12.61;73.17
70015;BME280;57358;51.094;6.760;2023-04-30T05:59:23;101539.25;;;12.11;73.31
70015;BME280;57358;51.094;6.760;2023-04-30T06:01:51;101576.34;;;11.84;75.11
70015;BME280;57358;51.094;6.760;2023-04-30T06:04:18;101580.63;;;11.24;76.93
70015;BME280;57358;51.094;6.760;2023-04-30T06:06:44;101610.81;;;11.13;78.88
70015;BME280;57358;51.094;6.760;2023-04-30T06:09:11;101482.81;;;10.29;80.67
70015;BME280;57358;51.094;6.760;2023-04-30T06:11:37;101626.50;;;10.93;81.75
70015;BME280;57358;51.094;6.760;2023-04-30T06:14:07;101635.53;;;10.86;81.97
70015;BME280;57358;51.094;6.760;2023-04-30T06:16:33;101654.75;;;10.86;83.72
70015;BME280;57358;51.094;6.760;2023-04-30T06:19:00;101589.97;;;10.41;84.15
70015;BME280;57358;51.094;6.760;2023-04-30T06:21:26;101636.66;;;10.56;84.14
70015;BME280;57358;51.094;6.760;2023-04-30T06:23:53;101617.97;;;10.41;84.26
70015;BME280;57358;51.094;6.760;2023-04-30T06:26:19;101649.53;;;10.63;84.84
70015;BME280;57358;51.094;6.760;2023-04-30T06:28:46;101650.34;;;10.65;85.52
70015;BME280;57358;51.094;6.760;2023-04-30T06:31:12;101662.34;;;10.70;85.82
70015;BME280;57358;51.094;6.760;2023-04-30T06:33:38;101664.97;;;10.70;85.99
70015;BME280;57358;51.094;6.760;2023-04-30T06:36:05;101674.63;;;10.70;86.42
70015;BME280;57358;51.094;6.760;2023-04-30T06:38:31;101648.09;;;10.30;86.61
70015;BME280;57358;51.094;6.760;2023-04-30T06:40:58;101689.28;;;10.52;88.12
70015;BME280;57358;51.094;6.760;2023-04-30T06:43:27;101679.09;;;10.68;88.48
70015;BME280;57358;51.094;6.760;2023-04-30T06:45:53;101616.72;;;10.26;88.09
70015;BME280;57358;51.094;6.760;2023-04-30T06:48:20;101688.25;;;10.56;88.27
70015;BME280;57358;51.094;6.760;2023-04-30T06:50:46;101707.16;;;10.66;89.74
70015;BME280;57358;51.094;6.760;2023-04-30T06:53:13;101699.81;;;10.75;89.76
70015;BME280;57358;51.094;6.760;2023-04-30T06:55:40;101714.31;;;10.86;89.57
70015;BME280;57358;51.094;6.760;2023-04-30T06:58:08;101711.78;;;11.06;89.08
70015;BME280;57358;51.094;6.760;2023-04-30T07:00:34;101649.88;;;10.77;87.53
70015;BME280;57358;51.094;6.760;2023-04-30T07:03:01;101395.78;;;9.25;86.50
70015;BME280;57358;51.094;6.760;2023-04-30T07:05:30;101687.91;;;11.12;85.62
70015;BME280;57358;51.094;6.760;2023-04-30T07:07:57;101620.34;;;10.94;83.70
70015;BME280;57358;51.094;6.760;2023-04-30T07:10:23;101608.53;;;11.04;82.69
70015;BME280;57358;51.094;6.760;2023-04-30T07:12:50;101639.59;;;11.38;80.70
70015;BME280;57358;51.094;6.760;2023-04-30T07:15:16;101515.78;;;10.82;79.90
70015;BME280;57358;51.094;6.760;2023-04-30T07:17:43;101574.09;;;11.12;80.27
70015;BME280;57358;51.094;6.760;2023-04-30T07:20:10;101591.56;;;11.35;78.33
70015;BME280;57358;51.094;6.760;2023-04-30T07:22:37;101399.16;;;10.21;77.76
70015;BME280;57358;51.094;6.760;2023-04-30T07:25:04;101574.34;;;11.48;76.18
70015;BME280;57358;51.094;6.760;2023-04-30T07:27:31;101462.63;;;10.97;75.75
70015;BME280;57358;51.094;6.760;2023-04-30T07:29:57;101489.50;;;11.04;75.49
70015;BME280;57358;51.094;6.760;2023-04-30T07:32:23;101585.00;;;11.86;75.73
70015;BME280;57358;51.094;6.760;2023-04-30T07:34:52;101586.00;;;12.04;76.03
70015;BME280;57358;51.094;6.760;2023-04-30T07:37:19;101591.44;;;12.20;76.13
70015;BME280;57358;51.094;6.760;2023-04-30T07:39:45;101565.47;;;12.12;74.51
70015;BME280;57358;51.094;6.760;2023-04-30T07:42:12;101569.50;;;12.21;75.04
70015;BME280;57358;51.094;6.760;2023-04-30T07:44:38;101533.34;;;11.85;74.93
70015;BME280;57358;51.094;6.760;2023-04-30T07:47:05;101479.22;;;11.61;74.90
70015;BME280;57358;51.094;6.760;2023-04-30T07:49:31;101549.84;;;12.09;74.07
70015;BME280;57358;51.094;6.760;2023-04-30T07:51:58;101474.53;;;11.67;75.25
70015;BME280;57358;51.094;6.760;2023-04-30T07:54:26;101463.25;;;11.84;74.62
70015;BME280;57358;51.094;6.760;2023-04-30T07:56:53;101548.44;;;12.59;74.09
70015;BME280;57358;51.094;6.760;2023-04-30T07:59:24;101465.59;;;12.11;73.91
70015;BME280;57358;51.094;6.760;2023-04-30T08:01:50;101554.69;;;12.56;73.40
70015;BME280;57358;51.094;6.760;2023-04-30T08:04:17;101469.84;;;12.13;72.76
70015;BME280;57358;51.094;6.760;2023-04-30T08:06:43;101522.50;;;12.69;72.53
70015;BME280;57358;51.094;6.760;2023-04-30T08:09:10;101511.84;;;12.72;72.37
70015;BME280;57358;51.094;6.760;2023-04-30T08:11:37;101439.22;;;12.49;71.45
70015;BME280;57358;51.094;6.760;2023-04-30T08:14:03;101530.06;;;13.13;71.41
70015;BME280;57358;51.094;6.760;2023-04-30T08:16:30;101452.97;;;12.73;71.52
70015;BME280;57358;51.094;6.760;2023-04-30T08:18:57;101537.56;;;13.21;71.94
70015;BME280;57358;51.094;6.760;2023-04-30T08:21:24;101546.66;;;13.15;72.14
70015;BME280;57358;51.094;6.760;2023-04-30T08:23:53;101503.78;;;13.11;70.75
70015;BME280;57358;51.094;6.760;2023-04-30T08:26:20;101521.84;;;13.36;70.89
70015;BME280;57358;51.094;6.760;2023-04-30T08:28:46;101487.13;;;13.46;68.46
70015;BME280;57358;51.094;6.760;2023-04-30T08:31:13;101488.69;;;13.83;68.47
70015;BME280;57358;51.094;6.760;2023-04-30T08:33:39;101477.78;;;13.73;68.50
70015;BME280;57358;51.094;6.760;2023-04-30T08:36:06;101508.41;;;13.76;70.15
70015;BME280;57358;51.094;6.760;2023-04-30T08:38:32;101503.88;;;13.95;69.27
70015;BME280;57358;51.094;6.760;2023-04-30T08:41:11;101480.91;;;14.29;67.26
70015;BME280;57358;51.094;6.760;2023-04-30T08:43:39;101454.69;;;14.58;65.94
70015;BME280;57358;51.094;6.760;2023-04-30T08:46:06;101398.25;;;14.59;63.88
70015;BME280;57358;51.094;6.760;2023-04-30T08:48:33;101328.75;;;14.59;62.21
70015;BME280;57358;51.094;6.760;2023-04-30T08:51:00;101329.78;;;14.56;62.15
70015;BME280;57358;51.094;6.760;2023-04-30T08:53:28;101325.78;;;14.33;62.02
70015;BME280;57358;51.094;6.760;2023-04-30T08:55:56;101257.41;;;14.28;61.81
70015;BME280;57358;51.094;6.760;2023-04-30T08:58:23;101310.88;;;14.92;61.33
70015;BME280;57358;51.094;6.760;2023-04-30T09:00:49;101333.75;;;15.08;61.52
70015;BME280;57358;51.094;6.760;2023-04-30T09:03:16;101241.09;;;14.95;59.53
70015;BME280;57358;51.094;6.760;2023-04-30T09:05:42;101225.16;;;14.96;59.21
70015;BME280;57358;51.094;6.760;2023-04-30T09:08:16;101263.47;;;15.32;59.20
70015;BME280;57358;51.094;6.760;2023-04-30T09:10:42;101239.47;;;15.35;58.91
70015;BME280;57358;51.094;6.760;2023-04-30T09:13:09;101208.03;;;15.58;57.83
70015;BME280;57358;51.094;6.760;2023-04-30T09:15:38;101148.78;;;15.61;56.51
70015;BME280;57358;51.094;6.760;2023-04-30T09:20:37;101125.38;;;15.54;56.72
70015;BME280;57358;51.094;6.760;2023-04-30T09:23:08;101159.72;;;15.69;56.71
70015;BME280;57358;51.094;6.760;2023-04-30T09:25:39;101172.28;;;15.80;57.00
70015;BME280;57358;51.094;6.760;2023-04-30T09:30:34;101151.88;;;15.67;57.39
70015;BME280;57358;51.094;6.760;2023-04-30T09:33:02;101123.00;;;15.37;57.43
70015;BME280;57358;51.094;6.760;2023-04-30T09:35:36;101170.19;;;15.43;58.48
70015;BME280;57358;51.094;6.760;2023-04-30T09:38:04;101135.53;;;15.21;58.31
70015;BME280;57358;51.094;6.760;2023-04-30T09:40:36;101227.66;;;15.68;58.74
70015;BME280;57358;51.094;6.760;2023-04-30T09:43:03;101189.44;;;15.87;57.97
70015;BME280;57358;51.094;6.760;2023-04-30T09:45:43;101089.44;;;15.25;58.21
70015;BME280;57358;51.094;6.760;2023-04-30T09:48:14;101175.41;;;16.12;57.35
70015;BME280;57358;51.094;6.760;2023-04-30T09:50:43;101086.34;;;15.71;56.88
70015;BME280;57358;51.094;6.760;2023-04-30T09:53:11;101141.28;;;16.20;56.06
70015;BME280;57358;51.094;6.760;2023-04-30T09:55:45;101085.66;;;16.46;55.11
70015;BME280;57358;51.094;6.760;2023-04-30T09:58:12;101099.50;;;16.62;54.94
70015;BME280;57358;51.094;6.760;2023-04-30T10:00:40;101114.72;;;16.71;54.92
70015;BME280;57358;51.094;6.760;2023-04-30T10:03:07;101146.13;;;16.90;55.47
70015;BME280;57358;51.094;6.760;2023-04-30T10:05:45;101090.84;;;16.97;53.98
70015;BME280;57358;51.094;6.760;2023-04-30T10:10:44;100964.34;;;16.38;52.86
70015;BME280;57358;51.094;6.760;2023-04-30T10:13:17;101024.28;;;16.89;52.59
70015;BME280;57358;51.094;6.760;2023-04-30T10:15:49;101004.06;;;16.75;51.53
70015;BME280;57358;51.094;6.760;2023-04-30T10:18:22;101024.09;;;17.03;50.79
70015;BME280;57358;51.094;6.760;2023-04-30T10:20:52;101074.94;;;17.57;50.87
70015;BME280;57358;51.094;6.760;2023-04-30T10:23:20;100966.19;;;17.21;49.23
70015;BME280;57358;51.094;6.760;2023-04-30T10:25:47;100989.72;;;16.90;50.58
70015;BME280;57358;51.094;6.760;2023-04-30T10:28:16;101077.28;;;17.37;51.23
70015;BME280;57358;51.094;6.760;2023-04-30T10:30:42;101114.22;;;18.22;49.97
70015;BME280;57358;51.094;6.760;2023-04-30T10:33:36;101095.84;;;18.19;49.37
70015;BME280;57358;51.094;6.760;2023-04-30T10:36:11;101035.06;;;17.81;48.63
70015;BME280;57358;51.094;6.760;2023-04-30T10:38:38;101020.91;;;17.58;48.75
70015;BME280;57358;51.094;6.760;2023-04-30T10:41:06;100959.53;;;17.04;49.14
70015;BME280;57358;51.094;6.760;2023-04-30T10:43:35;101084.75;;;18.03;48.94
70015;BME280;57358;51.094;6.760;2023-04-30T10:46:02;101119.97;;;17.93;49.82
70015;BME280;57358;51.094;6.760;2023-04-30T10:48:32;101208.81;;;18.47;50.26
70015;BME280;57358;51.094;6.760;2023-04-30T10:51:00;101121.44;;;18.09;49.19
70015;BME280;57358;51.094;6.760;2023-04-30T10:53:31;101122.81;;;18.48;48.35
70015;BME280;57358;51.094;6.760;2023-04-30T10:56:02;101134.88;;;18.98;47.47
70015;BME280;57358;51.094;6.760;2023-04-30T10:58:35;101168.28;;;19.34;47.13
70015;BME280;57358;51.094;6.760;2023-04-30T11:01:11;101113.88;;;19.27;46.00
70015;BME280;57358;51.094;6.760;2023-04-30T11:03:42;101144.88;;;19.17;46.53
70015;BME280;57358;51.094;6.760;2023-04-30T11:07:09;101097.78;;;18.51;47.68
70015;BME280;57358;51.094;6.760;2023-04-30T11:09:42;101231.09;;;17.87;51.44
70015;BME280;57358;51.094;6.760;2023-04-30T11:12:29;101188.78;;;17.72;50.81
70015;BME280;57358;51.094;6.760;2023-04-30T11:15:04;101142.25;;;17.31;50.58
70015;BME280;57358;51.094;6.760;2023-04-30T11:17:32;101135.94;;;17.45;49.88
70015;BME280;57358;51.094;6.760;2023-04-30T11:19:59;101183.66;;;17.58;50.71
70015;BME280;57358;51.094;6.760;2023-04-30T11:22:27;101283.53;;;17.59;52.79
70015;BME280;57358;51.094;6.760;2023-04-30T11:27:26;101237.31;;;17.99;50.77
70015;BME280;57358;51.094;6.760;2023-04-30T11:29:54;101260.41;;;18.56;49.43
70015;BME280;57358;51.094;6.760;2023-04-30T11:32:23;101113.25;;;18.68;46.52
70015;BME280;57358;51.094;6.760;2023-04-30T11:34:51;101084.66;;;18.38;46.45
70015;BME280;57358;51.094;6.760;2023-04-30T11:40:03;101052.13;;;18.57;44.72
70015;BME280;57358;51.094;6.760;2023-04-30T11:42:31;101027.97;;;18.04;45.39
70015;BME280;57358;51.094;6.760;2023-04-30T11:47:45;101176.56;;;17.94;48.79
70015;BME280;57358;51.094;6.760;2023-04-30T11:50:25;101288.38;;;18.26;50.12
70015;BME280;57358;51.094;6.760;2023-04-30T11:52:56;101173.31;;;17.90;49.05
70015;BME280;57358;51.094;6.760;2023-04-30T11:55:24;101103.25;;;17.80;47.45
70015;BME280;57358;51.094;6.760;2023-04-30T11:57:53;101120.28;;;17.53;48.61
70015;BME280;57358;51.094;6.760;2023-04-30T12:00:30;100988.28;;;16.98;47.64
70015;BME280;57358;51.094;6.760;2023-04-30T12:02:58;101063.13;;;17.96;46.92
70015;BME280;57358;51.094;6.760;2023-04-30T12:05:26;101087.50;;;18.80;44.85
70015;BME280;57358;51.094;6.760;2023-04-30T12:07:58;101114.22;;;18.33;47.00
70015;BME280;57358;51.094;6.760;2023-04-30T12:10:25;101160.22;;;18.34;47.46
70015;BME280;57358;51.094;6.760;2023-04-30T12:12:52;101145.16;;;18.57;46.94
70015;BME280;57358;51.094;6.760;2023-04-30T12:15:24;101323.59;;;18.99;49.76
70015;BME280;57358;51.094;6.760;2023-04-30T12:17:58;101145.13;;;18.23;48.07
70015;BME280;57358;51.094;6.760;2023-04-30T12:20:26;101193.13;;;18.44;48.58
70015;BME280;57358;51.094;6.760;2023-04-30T12:22:54;101124.56;;;18.03;48.03
70015;BME280;57358;51.094;6.760;2023-04-30T12:25:22;101096.56;;;18.21;46.81
70015;BME280;57358;51.094;6.760;2023-04-30T12:27:50;101054.31;;;18.41;45.89
70015;BME280;57358;51.094;6.760;2023-04-30T12:30:21;101283.47;;;19.13;48.15
70015;BME280;57358;51.094;6.760;2023-04-30T12:32:50;101197.72;;;19.65;45.23
70015;BME280;57358;51.094;6.760;2023-04-30T12:35:18;101178.25;;;18.98;46.57
70015;BME280;57358;51.094;6.760;2023-04-30T12:38:06;101127.16;;;18.83;45.40
70015;BME280;57358;51.094;6.760;2023-04-30T12:40:34;101155.00;;;19.23;45.24
70015;BME280;57358;51.094;6.760;2023-04-30T12:43:06;101136.53;;;19.10;45.02
70015;BME280;57358;51.094;6.760;2023-04-30T12:45:49;101163.47;;;19.60;43.69
70015;BME280;57358;51.094;6.760;2023-04-30T12:48:21;101134.06;;;19.62;43.61
70015;BME280;57358;51.094;6.760;2023-04-30T12:50:59;101203.06;;;19.97;44.57
70015;BME280;57358;51.094;6.760;2023-04-30T12:53:30;101201.34;;;19.64;45.58
70015;BME280;57358;51.094;6.760;2023-04-30T12:56:09;101227.75;;;19.56;46.14
70015;BME280;57358;51.094;6.760;2023-04-30T12:58:36;101244.66;;;19.77;45.74
70015;BME280;57358;51.094;6.760;2023-04-30T13:01:09;101064.16;;;18.95;45.09
70015;BME280;57358;51.094;6.760;2023-04-30T13:03:35;101253.59;;;19.76;46.32
70015;BME280;57358;51.094;6.760;2023-04-30T13:06:02;101104.09;;;19.16;45.14
70015;BME280;57358;51.094;6.760;2023-04-30T13:08:30;101148.88;;;19.00;46.56
70015;BME280;57358;51.094;6.760;2023-04-30T13:11:00;101240.66;;;19.83;45.48
70015;BME280;57358;51.094;6.760;2023-04-30T13:13:27;101219.47;;;19.81;45.31
70015;BME280;57358;51.094;6.760;2023-04-30T13:15:53;101191.88;;;19.27;47.42
70015;BME280;57358;51.094;6.760;2023-04-30T13:18:19;101180.41;;;19.16;46.50
70015;BME280;57358;51.094;6.760;2023-04-30T13:20:47;101230.84;;;19.17;47.69
70015;BME280;57358;51.094;6.760;2023-04-30T13:23:13;101214.34;;;19.46;46.52
70015;BME280;57358;51.094;6.760;2023-04-30T13:25:40;101176.66;;;19.73;44.33